createdAt,value
2023-02-13T04:31:52.666Z,2.40
2023-02-13T04:42:28.268Z,2.40
2023-02-13T04:53:03.846Z,2.40
2023-02-13T05:03:39.249Z,2.80
2023-02-13T05:14:15.092Z,2.70
2023-02-13T05:24:50.681Z,2.80
2023-02-13T05:35:25.985Z,2.90
2023-02-13T05:46:03.480Z,3.20
2023-02-13T05:56:39.218Z,3.10
2023-02-13T06:07:14.750Z,3.10
2023-02-13T06:17:50.558Z,3.00
2023-02-13T06:28:26.472Z,2.90
2023-02-13T06:39:01.940Z,2.70
2023-02-13T06:49:37.846Z,2.60
2023-02-13T07:00:15.716Z,2.40
2023-02-13T07:10:51.438Z,1.40
2023-02-13T07:21:27.226Z,1.60
2023-02-13T07:32:02.822Z,5.30
2023-02-13T07:42:38.708Z,8.40
2023-02-13T07:53:14.291Z,6.20
2023-02-13T08:03:51.272Z,9.40
2023-02-13T08:14:27.691Z,14.00
2023-02-13T08:25:03.921Z,16.60
2023-02-13T08:35:39.513Z,16.50
2023-02-13T08:46:16.615Z,17.30
2023-02-13T08:56:52.297Z,18.20
2023-02-13T09:07:27.876Z,19.60
2023-02-13T09:18:03.457Z,20.70
2023-02-13T09:28:40.416Z,18.70
2023-02-13T09:39:16.789Z,22.80
2023-02-13T09:49:56.552Z,21.00
2023-02-13T10:00:40.362Z,23.50
2023-02-13T10:11:32.654Z,24.90
2023-02-13T10:22:16.599Z,24.30
2023-02-13T10:33:19.581Z,24.90
2023-02-13T10:44:23.753Z,25.00
2023-02-13T10:55:23.435Z,25.20
2023-02-13T11:06:01.233Z,23.70
2023-02-13T11:17:01.926Z,23.60
2023-02-13T11:27:39.365Z,17.80
2023-02-13T11:38:20.757Z,15.40
2023-02-13T11:48:57.642Z,14.90
2023-02-13T11:59:41.398Z,13.60
2023-02-13T12:10:27.486Z,13.00
2023-02-13T12:21:21.916Z,12.70
2023-02-13T12:32:18.536Z,12.40
2023-02-13T12:43:21.893Z,12.20
2023-02-13T12:54:07.713Z,12.30
2023-02-13T13:05:37.587Z,12.10
2023-02-13T13:16:20.188Z,12.10
2023-02-13T13:26:57.314Z,12.20
2023-02-13T13:37:43.084Z,12.30
2023-02-13T13:48:59.818Z,12.30
2023-02-13T13:59:37.950Z,12.40
2023-02-13T14:10:25.832Z,12.50
2023-02-13T14:21:03.654Z,12.40
2023-02-13T14:31:43.086Z,12.40
2023-02-13T14:42:28.218Z,12.50
2023-02-13T14:53:14.197Z,12.60
2023-02-13T15:03:57.142Z,12.50
2023-02-13T15:14:36.870Z,12.40
2023-02-13T15:25:36.181Z,12.20
2023-02-13T15:36:27.606Z,12.10
2023-02-13T15:47:07.432Z,11.90
2023-02-13T15:57:43.150Z,11.70
2023-02-13T16:08:33.408Z,11.50
2023-02-13T16:19:23.058Z,11.10
2023-02-13T16:30:07.460Z,10.80
2023-02-13T16:40:44.384Z,10.40
2023-02-13T16:51:29.930Z,9.90
2023-02-13T17:02:21.604Z,9.70
2023-02-13T17:13:01.357Z,9.20
2023-02-13T17:23:36.887Z,8.70
2023-02-13T17:34:12.498Z,8.00
2023-02-13T17:44:47.945Z,7.60
2023-02-13T17:55:26.217Z,7.10
2023-02-13T18:06:01.928Z,6.90
2023-02-13T18:16:38.124Z,6.60
2023-02-13T18:27:13.565Z,6.30
2023-02-13T18:37:49.579Z,6.20
2023-02-13T18:48:25.232Z,5.90
2023-02-13T18:59:00.853Z,5.90
2023-02-13T19:09:40.149Z,5.70
2023-02-13T19:20:16.898Z,5.60
2023-02-13T19:30:52.528Z,5.40
2023-02-13T19:41:28.983Z,5.10
2023-02-13T19:52:04.777Z,4.70
2023-02-13T20:02:40.657Z,4.20
2023-02-13T20:13:16.494Z,4.10
2023-02-13T20:23:52.341Z,3.70
2023-02-13T20:34:31.545Z,3.80
2023-02-13T20:45:09.874Z,3.50
2023-02-13T20:55:45.482Z,3.20
2023-02-13T21:06:32.828Z,3.40
2023-02-13T21:17:09.587Z,3.20
2023-02-13T21:27:45.156Z,2.70
2023-02-13T21:38:20.947Z,2.50
2023-02-13T21:49:03.580Z,1.90
2023-02-13T21:59:39.038Z,1.70
2023-02-13T22:10:14.806Z,1.60
2023-02-13T22:20:51.165Z,1.40
